createdAt,value
2019-04-20T00:01:03.367Z,11.50
2019-04-20T00:03:38.081Z,11.50
2019-04-20T00:06:04.990Z,11.40
2019-04-20T00:08:37.861Z,11.40
2019-04-20T00:11:14.272Z,11.30
2019-04-20T00:13:49.783Z,11.40
2019-04-20T00:16:12.631Z,11.30
2019-04-20T00:18:48.237Z,11.30
2019-04-20T00:21:33.951Z,11.40
2019-04-20T00:24:13.343Z,11.30
2019-04-20T00:29:29.726Z,11.20
2019-04-20T00:31:52.333Z,11.10
2019-04-20T00:34:23.034Z,11.10
2019-04-20T00:36:47.323Z,11.00
2019-04-20T00:39:18.872Z,11.00
2019-04-20T00:41:55.020Z,10.90
2019-04-20T00:44:26.001Z,10.90
2019-04-20T00:47:06.135Z,10.80
2019-04-20T00:49:41.048Z,10.80
2019-04-20T00:52:24.142Z,10.80
2019-04-20T00:54:26.414Z,10.70
2019-04-20T00:57:09.346Z,10.70
2019-04-20T00:59:42.941Z,10.70
2019-04-20T01:02:19.354Z,10.60
2019-04-20T01:04:54.956Z,10.60
2019-04-20T01:07:32.058Z,10.60
2019-04-20T01:09:58.328Z,10.50
2019-04-20T01:12:31.771Z,10.50
2019-04-20T01:15:05.893Z,10.50
2019-04-20T01:17:34.028Z,10.40
2019-04-20T01:20:05.038Z,10.40
2019-04-20T01:22:44.376Z,10.30
2019-04-20T01:25:15.138Z,10.30
2019-04-20T01:27:59.623Z,10.20
2019-04-20T01:30:20.768Z,10.20
2019-04-20T01:32:57.624Z,10.20
2019-04-20T01:35:34.182Z,10.10
2019-04-20T01:38:06.907Z,10.10
2019-04-20T01:40:19.124Z,10.00
2019-04-20T01:42:49.235Z,10.00
2019-04-20T01:45:26.768Z,10.00
2019-04-20T01:47:54.076Z,10.00
2019-04-20T01:50:26.164Z,9.90
2019-04-20T01:53:06.924Z,9.90
2019-04-20T01:55:43.975Z,9.90
2019-04-20T01:58:43.574Z,9.90
2019-04-20T02:01:23.079Z,9.80
2019-04-20T02:03:57.158Z,9.80
2019-04-20T02:06:28.539Z,9.70
2019-04-20T02:09:04.377Z,9.70
2019-04-20T02:11:34.981Z,9.70
2019-04-20T02:14:05.168Z,9.60
2019-04-20T02:16:40.211Z,9.60
2019-04-20T02:19:19.631Z,9.60
2019-04-20T02:21:54.188Z,9.60
2019-04-20T02:24:10.873Z,9.50
2019-04-20T02:26:39.202Z,9.50
2019-04-20T02:29:32.523Z,9.40
2019-04-20T02:32:19.860Z,9.40
2019-04-20T02:34:59.260Z,9.40
2019-04-20T02:40:12.078Z,9.40
2019-04-20T02:45:17.358Z,9.40
2019-04-20T02:50:16.958Z,9.40
2019-04-20T02:52:53.425Z,9.40
2019-04-20T02:55:14.756Z,9.40
2019-04-20T02:57:55.105Z,9.40
2019-04-20T03:00:12.698Z,9.40
2019-04-20T03:02:34.605Z,9.40
2019-04-20T03:05:02.641Z,9.30
2019-04-20T03:07:34.328Z,9.30
2019-04-20T03:10:12.364Z,9.30
2019-04-20T03:12:44.868Z,9.20
2019-04-20T03:15:20.880Z,9.20
2019-04-20T03:17:52.409Z,9.20
2019-04-20T03:20:23.291Z,9.20
2019-04-20T03:23:11.159Z,9.20
2019-04-20T03:25:45.498Z,9.20
2019-04-20T03:28:14.254Z,9.20
2019-04-20T03:33:51.332Z,9.10
2019-04-20T03:36:10.295Z,9.00
2019-04-20T03:38:26.242Z,9.00
2019-04-20T03:40:53.097Z,8.90
2019-04-20T03:43:11.819Z,8.90
2019-04-20T03:45:50.245Z,8.90
2019-04-20T03:48:33.607Z,8.90
2019-04-20T03:51:02.318Z,8.90
2019-04-20T03:53:39.447Z,8.90
2019-04-20T03:56:35.195Z,8.90
2019-04-20T03:59:19.498Z,8.90
2019-04-20T04:02:25.158Z,9.00
2019-04-20T04:04:54.582Z,9.00
2019-04-20T04:07:17.949Z,8.90
2019-04-20T04:09:56.432Z,9.00
2019-04-20T04:12:49.732Z,8.90
2019-04-20T04:15:19.025Z,8.90
2019-04-20T04:17:50.371Z,8.90
2019-04-20T04:20:21.417Z,8.80
2019-04-20T04:23:10.444Z,8.80
2019-04-20T04:25:35.566Z,8.90
2019-04-20T04:28:12.887Z,8.90
2019-04-20T04:30:40.441Z,8.90
2019-04-20T04:33:44.562Z,8.80
2019-04-20T04:35:44.382Z,8.80
2019-04-20T04:38:23.670Z,8.80
2019-04-20T04:41:04.626Z,8.70
2019-04-20T04:43:25.449Z,8.70
2019-04-20T04:45:37.060Z,8.70
2019-04-20T04:48:14.695Z,8.70
2019-04-20T04:50:47.460Z,8.70
2019-04-20T04:53:24.108Z,8.70
2019-04-20T04:55:50.103Z,8.70
2019-04-20T04:58:12.983Z,8.80
2019-04-20T05:00:42.768Z,8.80
2019-04-20T05:03:35.802Z,8.80
2019-04-20T05:06:18.655Z,8.80
2019-04-20T05:08:41.768Z,8.80
2019-04-20T05:11:06.795Z,8.80
2019-04-20T05:13:44.741Z,8.80
2019-04-20T05:16:28.358Z,8.80
2019-04-20T05:19:05.154Z,8.80
2019-04-20T05:21:49.622Z,8.80
2019-04-20T05:24:22.681Z,8.80
2019-04-20T05:27:09.233Z,8.90
2019-04-20T05:29:22.516Z,8.90
2019-04-20T05:31:51.835Z,8.90
2019-04-20T05:34:41.063Z,8.90
2019-04-20T05:37:16.351Z,9.00
2019-04-20T05:39:44.754Z,9.00
2019-04-20T05:42:17.892Z,9.10
2019-04-20T05:44:46.183Z,9.10
2019-04-20T05:47:19.917Z,9.10
2019-04-20T05:49:45.277Z,9.10
2019-04-20T05:54:57.326Z,9.20
2019-04-20T06:00:03.535Z,9.40
2019-04-20T06:02:29.370Z,9.50
2019-04-20T06:05:05.386Z,9.60
2019-04-20T06:07:34.748Z,9.70
2019-04-20T06:10:05.968Z,9.70
2019-04-20T06:12:36.351Z,9.80
2019-04-20T06:15:22.315Z,9.90
2019-04-20T06:18:06.307Z,9.90
2019-04-20T06:21:02.326Z,10.00
2019-04-20T06:23:41.432Z,10.20
2019-04-20T06:26:20.563Z,10.30
2019-04-20T06:28:33.773Z,10.40
2019-04-20T06:31:10.752Z,10.60
2019-04-20T06:34:30.548Z,10.70
2019-04-20T06:42:08.383Z,11.30
2019-04-20T06:47:02.745Z,11.80
2019-04-20T06:52:23.134Z,12.70
2019-04-20T06:55:03.050Z,13.30
2019-04-20T07:00:18.004Z,14.60
2019-04-20T07:02:44.692Z,15.20
2019-04-20T07:05:28.553Z,15.60
2019-04-20T07:07:48.043Z,15.90
2019-04-20T07:10:20.631Z,16.10
2019-04-20T07:12:46.632Z,16.50
2019-04-20T07:15:16.233Z,16.60
2019-04-20T07:17:57.336Z,16.80
2019-04-20T07:20:54.006Z,17.00
2019-04-20T07:23:23.705Z,17.10
2019-04-20T07:25:48.836Z,17.20
2019-04-20T07:28:24.133Z,17.40
2019-04-20T07:30:52.006Z,17.60
2019-04-20T07:33:24.553Z,17.70
2019-04-20T07:35:50.841Z,17.80
2019-04-20T07:38:40.163Z,17.90
2019-04-20T07:40:53.715Z,18.00
2019-04-20T07:43:28.083Z,18.10
2019-04-20T07:45:55.909Z,18.10
2019-04-20T07:48:26.401Z,18.00
2019-04-20T07:50:53.389Z,18.10
2019-04-20T07:53:26.029Z,18.10
2019-04-20T07:56:07.233Z,18.00
2019-04-20T07:58:25.206Z,18.00
2019-04-20T08:01:23.807Z,17.90
2019-04-20T08:03:51.436Z,17.90
2019-04-20T08:06:18.379Z,17.70
2019-04-20T08:08:58.668Z,17.60
2019-04-20T08:11:36.095Z,17.50
2019-04-20T08:14:22.500Z,17.30
2019-04-20T08:19:04.218Z,17.10
2019-04-20T08:21:40.847Z,17.00
2019-04-20T08:24:10.127Z,17.00
2019-04-20T08:26:29.939Z,16.90
2019-04-20T08:29:02.503Z,16.90
2019-04-20T08:32:14.970Z,17.00
2019-04-20T08:34:44.370Z,17.00
2019-04-20T08:37:11.193Z,17.00
2019-04-20T08:39:51.117Z,17.10
2019-04-20T08:42:18.636Z,17.10
2019-04-20T08:45:00.051Z,17.10
2019-04-20T08:47:35.135Z,17.10
2019-04-20T08:50:19.304Z,17.00
2019-04-20T08:53:03.592Z,17.10
2019-04-20T08:55:10.635Z,17.10
2019-04-20T08:57:27.038Z,17.20
2019-04-20T09:00:00.634Z,17.30
2019-04-20T09:02:30.270Z,17.30
2019-04-20T09:05:04.839Z,17.40
2019-04-20T09:07:39.095Z,17.50
2019-04-20T09:10:30.759Z,17.50
2019-04-20T09:12:52.410Z,17.60
2019-04-20T09:15:08.241Z,17.60
2019-04-20T09:17:57.486Z,17.70
2019-04-20T09:20:36.807Z,17.80
2019-04-20T09:23:18.187Z,17.90
2019-04-20T09:26:04.916Z,17.90
2019-04-20T09:28:25.554Z,18.00
2019-04-20T09:31:10.806Z,18.00
2019-04-20T09:33:48.673Z,18.10
2019-04-20T09:36:17.996Z,18.20
2019-04-20T09:39:10.404Z,18.20
2019-04-20T09:41:59.028Z,18.30
2019-04-20T09:44:10.927Z,18.40
2019-04-20T09:46:48.568Z,18.50
2019-04-20T09:49:20.118Z,18.60
2019-04-20T09:52:05.244Z,18.70
2019-04-20T09:54:32.668Z,18.80
2019-04-20T09:57:11.231Z,18.80
2019-04-20T09:59:37.188Z,19.00
2019-04-20T10:02:01.198Z,19.00
2019-04-20T10:04:21.695Z,19.20
2019-04-20T10:06:52.584Z,19.30
2019-04-20T10:09:29.538Z,19.30
2019-04-20T10:11:55.301Z,19.50
2019-04-20T10:14:25.189Z,19.60
2019-04-20T10:16:55.866Z,19.50
2019-04-20T10:19:30.916Z,19.50
2019-04-20T10:21:57.216Z,19.50
2019-04-20T10:24:26.945Z,19.60
2019-04-20T10:26:56.769Z,19.60
2019-04-20T10:29:27.823Z,19.70
2019-04-20T10:32:00.700Z,19.80
2019-04-20T10:34:30.577Z,20.00
2019-04-20T10:37:19.805Z,20.10
2019-04-20T10:39:49.776Z,20.20
2019-04-20T10:42:20.429Z,20.30
2019-04-20T10:44:52.240Z,20.40
2019-04-20T10:47:22.995Z,20.40
2019-04-20T10:49:53.324Z,20.50
2019-04-20T10:52:23.608Z,20.50
2019-04-20T10:54:54.578Z,20.60
2019-04-20T10:57:25.788Z,20.70
2019-04-20T10:59:55.708Z,20.70
2019-04-20T11:02:25.973Z,20.70
2019-04-20T11:04:59.578Z,20.70
2019-04-20T11:07:30.401Z,20.80
2019-04-20T11:10:10.657Z,20.80
2019-04-20T11:12:34.555Z,20.90
2019-04-20T11:15:06.124Z,21.00
2019-04-20T11:17:37.431Z,21.00
2019-04-20T11:20:07.553Z,21.10
2019-04-20T11:22:38.047Z,21.10
2019-04-20T11:25:08.319Z,21.20
2019-04-20T11:27:40.418Z,21.30
2019-04-20T11:30:12.158Z,21.30
2019-04-20T11:32:42.204Z,21.30
2019-04-20T11:35:21.450Z,21.30
2019-04-20T11:37:44.899Z,21.40
2019-04-20T11:40:15.106Z,21.40
2019-04-20T11:42:45.663Z,21.40
2019-04-20T11:45:15.695Z,21.50
2019-04-20T11:47:45.678Z,21.50
2019-04-20T11:50:15.763Z,21.60
2019-04-20T11:52:48.128Z,21.60
2019-04-20T11:55:18.149Z,21.60
2019-04-20T11:57:49.422Z,21.70
2019-04-20T12:00:25.152Z,21.70
2019-04-20T12:03:21.812Z,21.80
2019-04-20T12:05:51.075Z,21.80
2019-04-20T12:08:16.892Z,21.80
2019-04-20T12:10:52.018Z,21.80
2019-04-20T12:13:20.567Z,21.80
2019-04-20T12:15:51.869Z,21.80
2019-04-20T12:18:23.240Z,21.80
2019-04-20T12:20:54.685Z,21.80
2019-04-20T12:23:24.767Z,21.90
2019-04-20T12:25:54.533Z,21.90
2019-04-20T12:28:25.380Z,22.00
2019-04-20T12:31:03.117Z,22.00
2019-04-20T12:33:26.845Z,22.10
2019-04-20T12:35:56.725Z,22.10
2019-04-20T12:38:27.408Z,22.10
2019-04-20T12:40:58.152Z,22.20
2019-04-20T12:43:29.871Z,22.20
2019-04-20T12:46:00.048Z,22.20
2019-04-20T12:48:31.394Z,22.20
2019-04-20T12:51:01.655Z,22.30
2019-04-20T12:53:32.731Z,22.30
2019-04-20T12:56:02.704Z,22.30
2019-04-20T12:58:32.599Z,22.30
2019-04-20T13:01:02.638Z,22.30
2019-04-20T13:03:35.158Z,22.40
2019-04-20T13:06:05.879Z,22.40
2019-04-20T13:08:41.482Z,22.40
2019-04-20T13:11:13.019Z,22.40
2019-04-20T13:13:58.642Z,22.50
2019-04-20T13:16:32.385Z,22.50
2019-04-20T13:19:03.802Z,22.60
2019-04-20T13:21:34.871Z,22.60
2019-04-20T13:24:05.168Z,22.60
2019-04-20T13:26:35.209Z,22.60
2019-04-20T13:29:06.783Z,22.70
2019-04-20T13:31:37.889Z,22.70
2019-04-20T13:34:07.896Z,22.70
2019-04-20T13:36:38.068Z,22.70
2019-04-20T13:39:10.154Z,22.80
2019-04-20T13:42:03.487Z,22.80
2019-04-20T13:44:24.007Z,22.90
2019-04-20T13:46:54.767Z,22.90
2019-04-20T13:49:24.959Z,22.90
2019-04-20T13:51:54.983Z,23.00
2019-04-20T13:54:27.999Z,23.10
2019-04-20T13:56:57.478Z,23.10
2019-04-20T13:59:32.141Z,23.10
2019-04-20T14:02:18.741Z,23.10
2019-04-20T14:04:55.030Z,23.40
2019-04-20T14:07:25.364Z,24.00
2019-04-20T14:09:55.405Z,24.50
2019-04-20T14:12:32.492Z,25.00
2019-04-20T14:14:57.321Z,25.40
2019-04-20T14:17:27.136Z,25.80
2019-04-20T14:19:57.223Z,26.20
2019-04-20T14:22:29.288Z,26.40
2019-04-20T14:25:00.609Z,26.70
2019-04-20T14:27:30.904Z,26.90
2019-04-20T14:30:01.344Z,27.10
2019-04-20T14:32:32.951Z,27.40
2019-04-20T14:35:03.107Z,27.60
2019-04-20T14:37:33.048Z,27.60
2019-04-20T14:40:04.207Z,27.60
2019-04-20T14:42:40.542Z,27.60
2019-04-20T14:45:06.773Z,27.70
2019-04-20T14:47:37.179Z,28.00
2019-04-20T14:50:09.656Z,28.20
2019-04-20T14:52:39.737Z,28.40
2019-04-20T14:55:12.549Z,28.60
2019-04-20T14:57:41.741Z,28.70
2019-04-20T15:00:35.301Z,28.80
2019-04-20T15:03:23.961Z,29.00
2019-04-20T15:05:58.144Z,29.20
2019-04-20T15:08:28.060Z,29.30
2019-04-20T15:10:58.802Z,29.30
2019-04-20T15:13:28.939Z,29.20
2019-04-20T15:15:59.052Z,29.20
2019-04-20T15:18:39.758Z,29.40
2019-04-20T15:21:11.389Z,29.60
2019-04-20T15:23:41.569Z,29.80
2019-04-20T15:26:12.724Z,29.90
2019-04-20T15:28:43.896Z,30.20
2019-04-20T15:31:14.337Z,30.40
2019-04-20T15:33:45.248Z,30.60
2019-04-20T15:36:15.911Z,30.50
2019-04-20T15:38:47.099Z,30.50
2019-04-20T15:41:18.517Z,30.50
2019-04-20T15:43:49.149Z,30.70
2019-04-20T15:46:21.273Z,30.60
2019-04-20T15:48:52.335Z,30.70
2019-04-20T15:51:23.634Z,31.00
2019-04-20T15:53:53.804Z,31.20
2019-04-20T15:56:24.795Z,31.30
2019-04-20T15:58:54.768Z,31.50
2019-04-20T16:01:28.304Z,31.70
2019-04-20T16:04:06.013Z,31.80
2019-04-20T16:06:39.270Z,31.90
2019-04-20T16:09:10.313Z,31.80
2019-04-20T16:11:41.280Z,31.90
2019-04-20T16:14:11.313Z,32.00
2019-04-20T16:16:42.510Z,32.20
2019-04-20T16:19:26.798Z,32.40
2019-04-20T16:21:44.094Z,32.40
2019-04-20T16:24:16.991Z,32.50
2019-04-20T16:27:07.524Z,32.50
2019-04-20T16:29:37.872Z,32.60
2019-04-20T16:32:08.897Z,32.50
2019-04-20T16:34:40.202Z,31.60
2019-04-20T16:37:10.664Z,30.30
2019-04-20T16:39:40.802Z,29.10
2019-04-20T16:42:12.340Z,28.30
2019-04-20T16:44:43.089Z,27.70
2019-04-20T16:47:14.252Z,27.20
2019-04-20T16:49:44.295Z,26.80
2019-04-20T16:52:14.895Z,26.40
2019-04-20T16:54:46.161Z,26.20
2019-04-20T16:57:17.224Z,26.00
2019-04-20T16:59:51.231Z,25.80
2019-04-20T17:02:19.906Z,25.60
2019-04-20T17:04:53.265Z,25.40
2019-04-20T17:07:41.116Z,25.20
2019-04-20T17:10:13.778Z,25.10
2019-04-20T17:12:44.089Z,25.00
2019-04-20T17:15:15.754Z,24.80
2019-04-20T17:17:48.320Z,24.80
2019-04-20T17:20:17.900Z,24.60
2019-04-20T17:22:48.660Z,24.60
2019-04-20T17:25:19.714Z,24.40
2019-04-20T17:28:04.638Z,24.20
2019-04-20T17:30:54.915Z,24.10
2019-04-20T17:33:55.281Z,23.90
2019-04-20T17:36:21.791Z,23.70
2019-04-20T17:38:53.696Z,23.50
2019-04-20T17:41:43.104Z,23.40
2019-04-20T17:44:11.917Z,23.20
2019-04-20T17:46:37.130Z,23.00
2019-04-20T17:49:09.295Z,22.80
2019-04-20T17:51:49.159Z,22.70
2019-04-20T17:54:22.110Z,22.50
2019-04-20T17:56:52.565Z,22.30
2019-04-20T17:59:22.443Z,22.10
2019-04-20T18:02:44.319Z,21.90
2019-04-20T18:05:29.667Z,21.70
2019-04-20T18:08:06.291Z,21.50
2019-04-20T18:10:34.272Z,21.30
2019-04-20T18:12:49.826Z,21.10
2019-04-20T18:15:36.799Z,20.90
2019-04-20T18:18:24.012Z,20.70
2019-04-20T18:21:04.380Z,20.50
2019-04-20T18:23:43.250Z,20.30
2019-04-20T18:26:31.949Z,20.10
2019-04-20T18:29:04.887Z,19.90
2019-04-20T18:31:33.537Z,19.80
2019-04-20T18:34:13.136Z,19.60
2019-04-20T18:36:42.946Z,19.50
2019-04-20T18:39:13.682Z,19.30
2019-04-20T18:41:48.660Z,19.10
2019-04-20T18:44:14.848Z,18.90
2019-04-20T18:47:09.519Z,18.70
2019-04-20T18:49:33.843Z,18.50
2019-04-20T18:51:48.118Z,18.40
2019-04-20T18:54:22.061Z,18.20
2019-04-20T18:56:51.289Z,18.10
2019-04-20T18:59:23.453Z,18.00
2019-04-20T19:01:52.994Z,17.90
2019-04-20T19:04:23.737Z,17.90
2019-04-20T19:06:54.050Z,17.80
2019-04-20T19:09:27.144Z,17.70
2019-04-20T19:12:00.886Z,17.60
2019-04-20T19:14:49.468Z,17.60
2019-04-20T19:17:49.892Z,17.50
2019-04-20T19:20:20.594Z,17.40
2019-04-20T19:22:52.375Z,17.30
2019-04-20T19:25:26.122Z,17.30
2019-04-20T19:27:57.501Z,17.20
2019-04-20T19:30:35.345Z,17.10
2019-04-20T19:33:17.564Z,17.10
2019-04-20T19:35:41.669Z,17.00
2019-04-20T19:38:10.531Z,17.00
2019-04-20T19:40:45.698Z,17.00
2019-04-20T19:43:17.101Z,16.90
2019-04-20T19:46:06.887Z,16.90
2019-04-20T19:48:21.971Z,16.90
2019-04-20T19:51:05.933Z,16.80
2019-04-20T19:53:31.826Z,16.80
2019-04-20T19:55:56.684Z,16.80
2019-04-20T19:58:26.446Z,16.80
2019-04-20T20:00:53.444Z,16.80
2019-04-20T20:03:21.995Z,16.80
2019-04-20T20:05:54.159Z,16.80
2019-04-20T20:08:25.990Z,16.80
2019-04-20T20:10:58.219Z,16.70
2019-04-20T20:13:36.260Z,16.70
2019-04-20T20:16:08.688Z,16.60
2019-04-20T20:18:45.306Z,16.60
2019-04-20T20:21:17.596Z,16.50
2019-04-20T20:23:34.165Z,16.50
2019-04-20T20:26:07.158Z,16.30
2019-04-20T20:28:45.629Z,16.30
2019-04-20T20:31:21.894Z,16.20
2019-04-20T20:33:55.863Z,16.10
2019-04-20T20:36:17.971Z,16.00
2019-04-20T20:38:48.206Z,15.90
2019-04-20T20:41:24.986Z,15.80
2019-04-20T20:43:56.549Z,15.80
2019-04-20T20:46:28.482Z,15.70
2019-04-20T20:49:25.340Z,15.60
2019-04-20T20:51:44.233Z,15.50
2019-04-20T20:54:02.249Z,15.40
2019-04-20T20:56:28.936Z,15.40
2019-04-20T20:59:05.500Z,15.30
2019-04-20T21:01:37.776Z,15.20
2019-04-20T21:03:58.624Z,15.10
2019-04-20T21:06:30.591Z,15.10
2019-04-20T21:09:03.058Z,15.00
2019-04-20T21:11:36.083Z,15.00
2019-04-20T21:14:06.713Z,14.90
2019-04-20T21:16:42.608Z,14.90
2019-04-20T21:19:24.460Z,14.90
2019-04-20T21:21:49.424Z,14.90
2019-04-20T21:24:19.560Z,14.90
2019-04-20T21:26:49.567Z,14.80
2019-04-20T21:29:31.524Z,14.80
2019-04-20T21:31:59.935Z,14.80
2019-04-20T21:34:25.514Z,14.70
2019-04-20T21:37:01.854Z,14.70
2019-04-20T21:39:37.152Z,14.60
2019-04-20T21:42:05.470Z,14.60
2019-04-20T21:44:35.688Z,14.50
2019-04-20T21:47:03.289Z,14.50
2019-04-20T21:49:45.723Z,14.40
2019-04-20T21:52:14.942Z,14.40
2019-04-20T21:54:36.099Z,14.40
2019-04-20T21:57:09.300Z,14.30
2019-04-20T21:59:43.227Z,14.20
2019-04-20T22:02:15.059Z,14.20
2019-04-20T22:04:40.797Z,14.10
2019-04-20T22:07:10.724Z,14.10
2019-04-20T22:09:45.825Z,14.00
2019-04-20T22:12:12.264Z,13.90
2019-04-20T22:14:43.898Z,13.90
2019-04-20T22:17:21.185Z,13.80
2019-04-20T22:19:59.168Z,13.70
2019-04-20T22:22:34.652Z,13.70
2019-04-20T22:25:02.606Z,13.60
2019-04-20T22:27:25.858Z,13.50
2019-04-20T22:29:52.152Z,13.40
2019-04-20T22:32:23.875Z,13.40
2019-04-20T22:35:00.029Z,13.40
2019-04-20T22:37:29.815Z,13.30
2019-04-20T22:39:59.931Z,13.20
2019-04-20T22:42:37.701Z,13.10
2019-04-20T22:45:06.678Z,13.10
2019-04-20T22:47:34.398Z,13.00
2019-04-20T22:50:21.917Z,12.90
2019-04-20T22:52:44.399Z,12.80
2019-04-20T22:55:47.618Z,12.80
2019-04-20T22:57:53.863Z,12.70
2019-04-20T23:00:22.255Z,12.70
2019-04-20T23:02:47.048Z,12.60
2019-04-20T23:05:16.961Z,12.60
2019-04-20T23:07:46.795Z,12.50
2019-04-20T23:10:18.217Z,12.50
2019-04-20T23:12:52.491Z,12.50
2019-04-20T23:15:20.536Z,12.50
2019-04-20T23:17:52.167Z,12.50
2019-04-20T23:20:26.962Z,12.40
2019-04-20T23:22:54.677Z,12.30
2019-04-20T23:25:25.065Z,12.20
2019-04-20T23:28:00.313Z,12.20
2019-04-20T23:30:33.517Z,12.10
2019-04-20T23:32:58.459Z,12.00
2019-04-20T23:35:29.927Z,11.90
2019-04-20T23:38:02.858Z,11.80
2019-04-20T23:40:31.919Z,11.70
2019-04-20T23:43:15.249Z,11.60
2019-04-20T23:46:01.168Z,11.50
2019-04-20T23:48:38.938Z,11.40
2019-04-20T23:51:28.978Z,11.30
2019-04-20T23:53:51.153Z,11.20
2019-04-20T23:56:15.628Z,11.20
2019-04-20T23:58:46.377Z,11.10
